sensor_id;sensor_type;location;lat;lon;timestamp;P1;durP1;ratioP1;P2;durP2;ratioP2
3589;SDS011;1809;48.470;9.226;2023-03-12T00:01:55;9.10;;;5.30;;
3589;SDS011;1809;48.470;9.226;2023-03-12T00:04:23;7.73;;;4.57;;
3589;SDS011;1809;48.470;9.226;2023-03-12T00:06:48;9.03;;;5.50;;
3589;SDS011;1809;48.470;9.226;2023-03-12T00:09:13;5.73;;;4.00;;
3589;SDS011;1809;48.470;9.226;2023-03-12T00:11:39;4.33;;;3.93;;
3589;SDS011;1809;48.470;9.226;2023-03-12T00:14:04;8.53;;;4.60;;
3589;SDS011;1809;48.470;9.226;2023-03-12T00:16:29;10.83;;;5.20;;
3589;SDS011;1809;48.470;9.226;2023-03-12T00:18:55;8.80;;;5.20;;
3589;SDS011;1809;48.470;9.226;2023-03-12T00:21:20;7.37;;;4.43;;
3589;SDS011;1809;48.470;9.226;2023-03-12T00:23:47;11.03;;;4.73;;
3589;SDS011;1809;48.470;9.226;2023-03-12T00:26:14;9.10;;;4.63;;
3589;SDS011;1809;48.470;9.226;2023-03-12T00:28:40;12.40;;;6.27;;
3589;SDS011;1809;48.470;9.226;2023-03-12T00:31:16;7.00;;;6.00;;
3589;SDS011;1809;48.470;9.226;2023-03-12T00:33:44;7.87;;;4.73;;
3589;SDS011;1809;48.470;9.226;2023-03-12T00:36:10;9.10;;;6.00;;
3589;SDS011;1809;48.470;9.226;2023-03-12T00:38:36;12.87;;;5.40;;
3589;SDS011;1809;48.470;9.226;2023-03-12T00:41:01;9.07;;;5.50;;
3589;SDS011;1809;48.470;9.226;2023-03-12T00:43:27;14.23;;;5.70;;
3589;SDS011;1809;48.470;9.226;2023-03-12T00:45:52;13.23;;;6.30;;
3589;SDS011;1809;48.470;9.226;2023-03-12T00:48:17;8.33;;;5.80;;
3589;SDS011;1809;48.470;9.226;2023-03-12T00:50:43;8.10;;;4.77;;
3589;SDS011;1809;48.470;9.226;2023-03-12T00:53:08;9.93;;;5.33;;
3589;SDS011;1809;48.470;9.226;2023-03-12T00:55:33;4.93;;;4.20;;
3589;SDS011;1809;48.470;9.226;2023-03-12T00:57:59;8.83;;;5.17;;
3589;SDS011;1809;48.470;9.226;2023-03-12T01:00:24;9.83;;;5.13;;
3589;SDS011;1809;48.470;9.226;2023-03-12T01:02:50;10.03;;;5.30;;
3589;SDS011;1809;48.470;9.226;2023-03-12T01:05:15;9.33;;;5.90;;
3589;SDS011;1809;48.470;9.226;2023-03-12T01:07:40;10.50;;;5.40;;
3589;SDS011;1809;48.470;9.226;2023-03-12T01:10:07;8.50;;;5.87;;
3589;SDS011;1809;48.470;9.226;2023-03-12T01:12:33;9.20;;;5.67;;
3589;SDS011;1809;48.470;9.226;2023-03-12T01:14:58;7.27;;;5.33;;
3589;SDS011;1809;48.470;9.226;2023-03-12T01:17:23;10.60;;;5.83;;
3589;SDS011;1809;48.470;9.226;2023-03-12T01:19:49;7.70;;;4.50;;
3589;SDS011;1809;48.470;9.226;2023-03-12T01:22:14;8.20;;;5.27;;
3589;SDS011;1809;48.470;9.226;2023-03-12T01:24:39;7.97;;;4.30;;
3589;SDS011;1809;48.470;9.226;2023-03-12T01:27:05;8.50;;;4.00;;
3589;SDS011;1809;48.470;9.226;2023-03-12T01:29:30;6.80;;;5.13;;
3589;SDS011;1809;48.470;9.226;2023-03-12T01:31:56;5.07;;;4.47;;
3589;SDS011;1809;48.470;9.226;2023-03-12T01:34:21;10.83;;;4.93;;
3589;SDS011;1809;48.470;9.226;2023-03-12T01:36:46;13.07;;;5.20;;
3589;SDS011;1809;48.470;9.226;2023-03-12T01:39:12;5.53;;;4.30;;
3589;SDS011;1809;48.470;9.226;2023-03-12T01:41:38;9.80;;;4.60;;
3589;SDS011;1809;48.470;9.226;2023-03-12T01:44:04;7.83;;;4.27;;
3589;SDS011;1809;48.470;9.226;2023-03-12T01:46:36;5.43;;;4.43;;
3589;SDS011;1809;48.470;9.226;2023-03-12T01:49:08;5.50;;;4.20;;
3589;SDS011;1809;48.470;9.226;2023-03-12T01:54:19;13.10;;;4.67;;
3589;SDS011;1809;48.470;9.226;2023-03-12T01:56:49;5.23;;;3.90;;
3589;SDS011;1809;48.470;9.226;2023-03-12T01:59:17;5.37;;;4.17;;
3589;SDS011;1809;48.470;9.226;2023-03-12T02:01:46;8.00;;;3.50;;
3589;SDS011;1809;48.470;9.226;2023-03-12T02:04:12;8.27;;;4.70;;
3589;SDS011;1809;48.470;9.226;2023-03-12T02:06:45;7.43;;;4.37;;
3589;SDS011;1809;48.470;9.226;2023-03-12T02:09:15;9.20;;;4.30;;
3589;SDS011;1809;48.470;9.226;2023-03-12T02:11:44;5.73;;;3.53;;
3589;SDS011;1809;48.470;9.226;2023-03-12T02:14:09;5.73;;;3.83;;
3589;SDS011;1809;48.470;9.226;2023-03-12T02:16:34;4.10;;;3.70;;
3589;SDS011;1809;48.470;9.226;2023-03-12T02:19:00;5.10;;;4.60;;
3589;SDS011;1809;48.470;9.226;2023-03-12T02:21:29;4.73;;;3.97;;
3589;SDS011;1809;48.470;9.226;2023-03-12T02:26:30;4.40;;;4.00;;
3589;SDS011;1809;48.470;9.226;2023-03-12T02:28:58;8.43;;;4.10;;
3589;SDS011;1809;48.470;9.226;2023-03-12T02:31:25;5.63;;;3.80;;
3589;SDS011;1809;48.470;9.226;2023-03-12T02:33:54;4.80;;;3.40;;
3589;SDS011;1809;48.470;9.226;2023-03-12T02:36:20;5.30;;;4.37;;
3589;SDS011;1809;48.470;9.226;2023-03-12T02:38:47;5.70;;;4.03;;
3589;SDS011;1809;48.470;9.226;2023-03-12T02:43:39;7.47;;;4.23;;
3589;SDS011;1809;48.470;9.226;2023-03-12T02:46:06;10.07;;;4.00;;
3589;SDS011;1809;48.470;9.226;2023-03-12T02:48:32;7.37;;;3.73;;
3589;SDS011;1809;48.470;9.226;2023-03-12T02:50:58;9.63;;;4.50;;
3589;SDS011;1809;48.470;9.226;2023-03-12T02:53:23;6.23;;;3.47;;
3589;SDS011;1809;48.470;9.226;2023-03-12T02:55:48;5.20;;;4.10;;
3589;SDS011;1809;48.470;9.226;2023-03-12T02:58:14;8.23;;;4.80;;
3589;SDS011;1809;48.470;9.226;2023-03-12T03:00:39;10.43;;;4.50;;
3589;SDS011;1809;48.470;9.226;2023-03-12T03:03:04;5.90;;;3.83;;
3589;SDS011;1809;48.470;9.226;2023-03-12T03:05:30;3.60;;;3.40;;
3589;SDS011;1809;48.470;9.226;2023-03-12T03:07:55;9.10;;;4.80;;
3589;SDS011;1809;48.470;9.226;2023-03-12T03:10:21;6.40;;;5.00;;
3589;SDS011;1809;48.470;9.226;2023-03-12T03:12:46;4.00;;;3.57;;
3589;SDS011;1809;48.470;9.226;2023-03-12T03:15:11;3.90;;;3.60;;
3589;SDS011;1809;48.470;9.226;2023-03-12T03:17:37;6.27;;;3.00;;
3589;SDS011;1809;48.470;9.226;2023-03-12T03:20:03;8.77;;;2.87;;
3589;SDS011;1809;48.470;9.226;2023-03-12T03:22:35;7.70;;;3.77;;
3589;SDS011;1809;48.470;9.226;2023-03-12T03:25:01;4.03;;;3.10;;
3589;SDS011;1809;48.470;9.226;2023-03-12T03:27:26;5.13;;;3.20;;
3589;SDS011;1809;48.470;9.226;2023-03-12T03:29:52;6.77;;;3.27;;
3589;SDS011;1809;48.470;9.226;2023-03-12T03:32:17;7.80;;;3.33;;
3589;SDS011;1809;48.470;9.226;2023-03-12T03:34:42;5.77;;;2.90;;
3589;SDS011;1809;48.470;9.226;2023-03-12T03:37:08;5.10;;;2.80;;
3589;SDS011;1809;48.470;9.226;2023-03-12T03:39:33;4.17;;;3.00;;
3589;SDS011;1809;48.470;9.226;2023-03-12T03:41:59;3.33;;;3.03;;
3589;SDS011;1809;48.470;9.226;2023-03-12T03:44:24;3.60;;;3.30;;
3589;SDS011;1809;48.470;9.226;2023-03-12T03:46:50;6.23;;;3.47;;
3589;SDS011;1809;48.470;9.226;2023-03-12T03:49:15;5.83;;;4.00;;
3589;SDS011;1809;48.470;9.226;2023-03-12T03:51:41;27.10;;;14.27;;
3589;SDS011;1809;48.470;9.226;2023-03-12T03:54:06;24.50;;;13.60;;
3589;SDS011;1809;48.470;9.226;2023-03-12T03:56:32;24.83;;;11.37;;
3589;SDS011;1809;48.470;9.226;2023-03-12T03:58:58;23.20;;;10.20;;
3589;SDS011;1809;48.470;9.226;2023-03-12T04:01:25;14.73;;;9.33;;
3589;SDS011;1809;48.470;9.226;2023-03-12T04:03:51;11.83;;;8.07;;
3589;SDS011;1809;48.470;9.226;2023-03-12T04:06:16;16.97;;;11.07;;
3589;SDS011;1809;48.470;9.226;2023-03-12T04:08:41;21.87;;;11.30;;
3589;SDS011;1809;48.470;9.226;2023-03-12T04:11:17;15.70;;;9.97;;
3589;SDS011;1809;48.470;9.226;2023-03-12T04:13:45;18.53;;;10.10;;
3589;SDS011;1809;48.470;9.226;2023-03-12T04:16:11;12.67;;;6.97;;
3589;SDS011;1809;48.470;9.226;2023-03-12T04:18:37;9.30;;;6.00;;
3589;SDS011;1809;48.470;9.226;2023-03-12T04:21:04;11.90;;;5.67;;
3589;SDS011;1809;48.470;9.226;2023-03-12T04:23:31;6.40;;;4.10;;
3589;SDS011;1809;48.470;9.226;2023-03-12T04:25:57;4.50;;;3.50;;
3589;SDS011;1809;48.470;9.226;2023-03-12T04:28:22;2.90;;;2.70;;
3589;SDS011;1809;48.470;9.226;2023-03-12T04:30:54;6.40;;;3.53;;
3589;SDS011;1809;48.470;9.226;2023-03-12T04:33:21;2.83;;;2.60;;
3589;SDS011;1809;48.470;9.226;2023-03-12T04:35:50;3.60;;;2.50;;
3589;SDS011;1809;48.470;9.226;2023-03-12T04:38:16;3.67;;;3.40;;
3589;SDS011;1809;48.470;9.226;2023-03-12T04:40:42;3.20;;;2.47;;
3589;SDS011;1809;48.470;9.226;2023-03-12T04:43:07;7.73;;;2.40;;
3589;SDS011;1809;48.470;9.226;2023-03-12T04:45:32;4.63;;;2.77;;
3589;SDS011;1809;48.470;9.226;2023-03-12T04:47:58;2.60;;;2.40;;
3589;SDS011;1809;48.470;9.226;2023-03-12T04:50:23;3.40;;;2.97;;
3589;SDS011;1809;48.470;9.226;2023-03-12T04:52:49;3.03;;;2.70;;
3589;SDS011;1809;48.470;9.226;2023-03-12T04:55:14;4.87;;;2.70;;
3589;SDS011;1809;48.470;9.226;2023-03-12T04:57:40;1.83;;;1.73;;
3589;SDS011;1809;48.470;9.226;2023-03-12T05:00:05;3.33;;;2.80;;
3589;SDS011;1809;48.470;9.226;2023-03-12T05:02:37;6.30;;;2.77;;
3589;SDS011;1809;48.470;9.226;2023-03-12T05:05:05;4.70;;;3.27;;
3589;SDS011;1809;48.470;9.226;2023-03-12T05:07:31;6.10;;;3.20;;
3589;SDS011;1809;48.470;9.226;2023-03-12T05:09:57;4.30;;;2.60;;
3589;SDS011;1809;48.470;9.226;2023-03-12T05:12:22;3.23;;;1.83;;
3589;SDS011;1809;48.470;9.226;2023-03-12T05:14:47;2.87;;;2.37;;
3589;SDS011;1809;48.470;9.226;2023-03-12T05:17:13;3.27;;;2.47;;
3589;SDS011;1809;48.470;9.226;2023-03-12T05:19:38;3.20;;;2.47;;
3589;SDS011;1809;48.470;9.226;2023-03-12T05:22:04;8.00;;;2.00;;
3589;SDS011;1809;48.470;9.226;2023-03-12T05:24:29;2.73;;;2.53;;
3589;SDS011;1809;48.470;9.226;2023-03-12T05:26:54;3.13;;;2.00;;
3589;SDS011;1809;48.470;9.226;2023-03-12T05:29:20;2.80;;;2.60;;
3589;SDS011;1809;48.470;9.226;2023-03-12T05:31:45;7.53;;;4.80;;
3589;SDS011;1809;48.470;9.226;2023-03-12T05:34:11;4.17;;;2.97;;
3589;SDS011;1809;48.470;9.226;2023-03-12T05:36:37;4.03;;;3.63;;
3589;SDS011;1809;48.470;9.226;2023-03-12T05:39:02;6.67;;;4.17;;
3589;SDS011;1809;48.470;9.226;2023-03-12T05:41:28;3.47;;;3.17;;
3589;SDS011;1809;48.470;9.226;2023-03-12T05:43:54;11.07;;;3.80;;
3589;SDS011;1809;48.470;9.226;2023-03-12T05:46:22;5.60;;;4.20;;
3589;SDS011;1809;48.470;9.226;2023-03-12T05:48:48;8.53;;;5.43;;
3589;SDS011;1809;48.470;9.226;2023-03-12T05:51:13;5.70;;;5.17;;
3589;SDS011;1809;48.470;9.226;2023-03-12T05:53:39;8.17;;;5.30;;
3589;SDS011;1809;48.470;9.226;2023-03-12T05:56:05;7.87;;;5.90;;
3589;SDS011;1809;48.470;9.226;2023-03-12T05:58:33;8.50;;;5.10;;
3589;SDS011;1809;48.470;9.226;2023-03-12T06:00:59;11.10;;;5.93;;
3589;SDS011;1809;48.470;9.226;2023-03-12T06:03:25;11.60;;;6.40;;
3589;SDS011;1809;48.470;9.226;2023-03-12T06:05:51;13.50;;;7.60;;
3589;SDS011;1809;48.470;9.226;2023-03-12T06:08:19;12.80;;;7.43;;
3589;SDS011;1809;48.470;9.226;2023-03-12T06:10:45;16.37;;;8.87;;
3589;SDS011;1809;48.470;9.226;2023-03-12T06:13:11;14.13;;;7.57;;
3589;SDS011;1809;48.470;9.226;2023-03-12T06:15:36;13.37;;;6.90;;
3589;SDS011;1809;48.470;9.226;2023-03-12T06:18:01;13.73;;;7.97;;
3589;SDS011;1809;48.470;9.226;2023-03-12T06:20:27;14.90;;;8.50;;
3589;SDS011;1809;48.470;9.226;2023-03-12T06:22:52;12.17;;;7.90;;
3589;SDS011;1809;48.470;9.226;2023-03-12T06:25:17;17.13;;;8.50;;
3589;SDS011;1809;48.470;9.226;2023-03-12T06:27:43;18.43;;;8.23;;
3589;SDS011;1809;48.470;9.226;2023-03-12T06:30:08;14.43;;;7.80;;
3589;SDS011;1809;48.470;9.226;2023-03-12T06:32:34;18.70;;;9.30;;
3589;SDS011;1809;48.470;9.226;2023-03-12T06:34:59;16.10;;;9.70;;
3589;SDS011;1809;48.470;9.226;2023-03-12T06:37:25;13.60;;;8.97;;
3589;SDS011;1809;48.470;9.226;2023-03-12T06:39:51;18.50;;;9.80;;
3589;SDS011;1809;48.470;9.226;2023-03-12T06:42:16;12.60;;;7.90;;
3589;SDS011;1809;48.470;9.226;2023-03-12T06:44:43;16.23;;;10.30;;
3589;SDS011;1809;48.470;9.226;2023-03-12T06:47:09;23.03;;;10.90;;
3589;SDS011;1809;48.470;9.226;2023-03-12T06:49:34;19.27;;;10.13;;
3589;SDS011;1809;48.470;9.226;2023-03-12T06:52:01;19.40;;;11.37;;
3589;SDS011;1809;48.470;9.226;2023-03-12T06:54:27;19.57;;;11.57;;
3589;SDS011;1809;48.470;9.226;2023-03-12T06:56:52;21.50;;;11.60;;
3589;SDS011;1809;48.470;9.226;2023-03-12T06:59:17;15.63;;;10.13;;
3589;SDS011;1809;48.470;9.226;2023-03-12T07:01:45;18.00;;;9.90;;
3589;SDS011;1809;48.470;9.226;2023-03-12T07:04:11;17.73;;;10.70;;
3589;SDS011;1809;48.470;9.226;2023-03-12T07:06:36;18.77;;;10.50;;
3589;SDS011;1809;48.470;9.226;2023-03-12T07:09:01;20.53;;;11.53;;
3589;SDS011;1809;48.470;9.226;2023-03-12T07:11:27;20.40;;;11.57;;
3589;SDS011;1809;48.470;9.226;2023-03-12T07:13:52;22.70;;;12.23;;
3589;SDS011;1809;48.470;9.226;2023-03-12T07:16:17;21.27;;;12.50;;
3589;SDS011;1809;48.470;9.226;2023-03-12T07:18:43;17.87;;;10.27;;
3589;SDS011;1809;48.470;9.226;2023-03-12T07:21:11;17.57;;;11.30;;
3589;SDS011;1809;48.470;9.226;2023-03-12T07:23:46;21.10;;;11.80;;
3589;SDS011;1809;48.470;9.226;2023-03-12T07:26:18;24.20;;;14.20;;
3589;SDS011;1809;48.470;9.226;2023-03-12T07:28:44;24.77;;;12.70;;
3589;SDS011;1809;48.470;9.226;2023-03-12T07:31:10;24.07;;;14.30;;
3589;SDS011;1809;48.470;9.226;2023-03-12T07:33:35;23.97;;;13.80;;
3589;SDS011;1809;48.470;9.226;2023-03-12T07:36:01;22.53;;;13.47;;
3589;SDS011;1809;48.470;9.226;2023-03-12T07:38:27;22.50;;;12.30;;
3589;SDS011;1809;48.470;9.226;2023-03-12T07:40:52;24.67;;;13.43;;
3589;SDS011;1809;48.470;9.226;2023-03-12T07:43:19;19.93;;;11.70;;
3589;SDS011;1809;48.470;9.226;2023-03-12T07:45:45;17.20;;;10.30;;
3589;SDS011;1809;48.470;9.226;2023-03-12T07:48:10;18.67;;;10.50;;
3589;SDS011;1809;48.470;9.226;2023-03-12T07:50:35;24.07;;;12.37;;
3589;SDS011;1809;48.470;9.226;2023-03-12T07:53:01;23.13;;;11.50;;
3589;SDS011;1809;48.470;9.226;2023-03-12T07:55:28;22.17;;;12.53;;
3589;SDS011;1809;48.470;9.226;2023-03-12T07:57:54;21.60;;;11.50;;
3589;SDS011;1809;48.470;9.226;2023-03-12T08:00:22;17.07;;;10.80;;
3589;SDS011;1809;48.470;9.226;2023-03-12T08:02:48;18.83;;;11.77;;
3589;SDS011;1809;48.470;9.226;2023-03-12T08:05:13;23.93;;;14.80;;
3589;SDS011;1809;48.470;9.226;2023-03-12T08:07:38;17.80;;;12.00;;
3589;SDS011;1809;48.470;9.226;2023-03-12T08:10:04;14.10;;;9.80;;
3589;SDS011;1809;48.470;9.226;2023-03-12T08:12:31;19.87;;;11.90;;
3589;SDS011;1809;48.470;9.226;2023-03-12T08:14:57;20.70;;;11.73;;
3589;SDS011;1809;48.470;9.226;2023-03-12T08:17:23;26.93;;;12.77;;
3589;SDS011;1809;48.470;9.226;2023-03-12T08:19:48;21.50;;;11.73;;
3589;SDS011;1809;48.470;9.226;2023-03-12T08:22:14;32.23;;;13.07;;
3589;SDS011;1809;48.470;9.226;2023-03-12T08:24:39;18.83;;;12.67;;
3589;SDS011;1809;48.470;9.226;2023-03-12T08:27:05;17.80;;;12.90;;
3589;SDS011;1809;48.470;9.226;2023-03-12T08:29:30;21.03;;;12.67;;
3589;SDS011;1809;48.470;9.226;2023-03-12T08:31:57;23.30;;;14.60;;
3589;SDS011;1809;48.470;9.226;2023-03-12T08:34:23;22.03;;;13.17;;
3589;SDS011;1809;48.470;9.226;2023-03-12T08:36:49;21.07;;;13.03;;
3589;SDS011;1809;48.470;9.226;2023-03-12T08:39:14;20.90;;;13.63;;
3589;SDS011;1809;48.470;9.226;2023-03-12T08:41:40;23.07;;;15.07;;
3589;SDS011;1809;48.470;9.226;2023-03-12T08:44:05;23.53;;;14.03;;
3589;SDS011;1809;48.470;9.226;2023-03-12T08:46:30;33.83;;;18.27;;
3589;SDS011;1809;48.470;9.226;2023-03-12T08:48:56;24.00;;;14.37;;
3589;SDS011;1809;48.470;9.226;2023-03-12T08:51:21;22.43;;;14.13;;
3589;SDS011;1809;48.470;9.226;2023-03-12T08:53:46;19.77;;;13.33;;
3589;SDS011;1809;48.470;9.226;2023-03-12T08:56:12;14.10;;;9.90;;
3589;SDS011;1809;48.470;9.226;2023-03-12T08:58:37;22.27;;;12.83;;
3589;SDS011;1809;48.470;9.226;2023-03-12T09:01:06;12.17;;;8.27;;
3589;SDS011;1809;48.470;9.226;2023-03-12T09:03:33;8.60;;;7.00;;
3589;SDS011;1809;48.470;9.226;2023-03-12T09:06:03;4.73;;;4.20;;
3589;SDS011;1809;48.470;9.226;2023-03-12T09:08:33;7.30;;;5.30;;
3589;SDS011;1809;48.470;9.226;2023-03-12T09:10:59;6.30;;;2.77;;
3589;SDS011;1809;48.470;9.226;2023-03-12T09:13:25;7.00;;;4.83;;
3589;SDS011;1809;48.470;9.226;2023-03-12T09:15:51;4.97;;;2.83;;
3589;SDS011;1809;48.470;9.226;2023-03-12T09:18:16;4.20;;;3.70;;
3589;SDS011;1809;48.470;9.226;2023-03-12T09:20:44;7.00;;;4.37;;
3589;SDS011;1809;48.470;9.226;2023-03-12T09:23:09;5.17;;;4.30;;
3589;SDS011;1809;48.470;9.226;2023-03-12T09:25:34;5.13;;;4.63;;
3589;SDS011;1809;48.470;9.226;2023-03-12T09:28:00;4.97;;;3.90;;
3589;SDS011;1809;48.470;9.226;2023-03-12T09:30:26;3.30;;;3.10;;
3589;SDS011;1809;48.470;9.226;2023-03-12T09:32:54;10.77;;;5.40;;
3589;SDS011;1809;48.470;9.226;2023-03-12T09:35:19;8.57;;;5.67;;
3589;SDS011;1809;48.470;9.226;2023-03-12T09:37:46;5.10;;;4.20;;
3589;SDS011;1809;48.470;9.226;2023-03-12T09:40:15;4.00;;;2.40;;
3589;SDS011;1809;48.470;9.226;2023-03-12T09:42:48;3.80;;;3.20;;
3589;SDS011;1809;48.470;9.226;2023-03-12T09:45:23;2.47;;;2.20;;
3589;SDS011;1809;48.470;9.226;2023-03-12T09:47:54;2.77;;;2.57;;
3589;SDS011;1809;48.470;9.226;2023-03-12T09:50:29;2.13;;;2.03;;
3589;SDS011;1809;48.470;9.226;2023-03-12T09:53:15;2.70;;;2.50;;
3589;SDS011;1809;48.470;9.226;2023-03-12T09:55:53;3.53;;;2.07;;
3589;SDS011;1809;48.470;9.226;2023-03-12T10:00:49;2.07;;;1.87;;
3589;SDS011;1809;48.470;9.226;2023-03-12T10:03:39;2.63;;;1.53;;
3589;SDS011;1809;48.470;9.226;2023-03-12T10:06:17;2.13;;;1.93;;
3589;SDS011;1809;48.470;9.226;2023-03-12T10:11:26;2.97;;;2.33;;
3589;SDS011;1809;48.470;9.226;2023-03-12T10:14:05;3.80;;;1.67;;
3589;SDS011;1809;48.470;9.226;2023-03-12T10:16:48;5.07;;;2.17;;
3589;SDS011;1809;48.470;9.226;2023-03-12T10:19:39;2.80;;;1.10;;
3589;SDS011;1809;48.470;9.226;2023-03-12T10:25:09;1.07;;;0.93;;
3589;SDS011;1809;48.470;9.226;2023-03-12T10:27:42;1.90;;;1.70;;
3589;SDS011;1809;48.470;9.226;2023-03-12T10:30:25;3.10;;;1.60;;
3589;SDS011;1809;48.470;9.226;2023-03-12T10:32:55;2.70;;;1.77;;
3589;SDS011;1809;48.470;9.226;2023-03-12T10:35:25;5.23;;;1.63;;
3589;SDS011;1809;48.470;9.226;2023-03-12T10:38:03;1.77;;;1.63;;
3589;SDS011;1809;48.470;9.226;2023-03-12T10:40:35;4.70;;;1.40;;
3589;SDS011;1809;48.470;9.226;2023-03-12T10:43:01;1.63;;;1.53;;
3589;SDS011;1809;48.470;9.226;2023-03-12T10:45:30;7.87;;;2.20;;
3589;SDS011;1809;48.470;9.226;2023-03-12T10:48:06;8.87;;;3.33;;
3589;SDS011;1809;48.470;9.226;2023-03-12T10:50:35;6.07;;;3.90;;
3589;SDS011;1809;48.470;9.226;2023-03-12T10:53:12;11.80;;;5.40;;
3589;SDS011;1809;48.470;9.226;2023-03-12T10:58:33;6.13;;;3.40;;
3589;SDS011;1809;48.470;9.226;2023-03-12T11:01:00;4.07;;;2.13;;
3589;SDS011;1809;48.470;9.226;2023-03-12T11:03:28;6.73;;;1.30;;
3589;SDS011;1809;48.470;9.226;2023-03-12T11:05:57;3.90;;;1.57;;
3589;SDS011;1809;48.470;9.226;2023-03-12T11:08:31;2.70;;;1.33;;
3589;SDS011;1809;48.470;9.226;2023-03-12T11:11:01;2.03;;;1.63;;
3589;SDS011;1809;48.470;9.226;2023-03-12T11:13:32;4.00;;;2.00;;
3589;SDS011;1809;48.470;9.226;2023-03-12T11:18:54;3.43;;;1.00;;
3589;SDS011;1809;48.470;9.226;2023-03-12T11:21:21;4.10;;;1.70;;
3589;SDS011;1809;48.470;9.226;2023-03-12T11:26:28;4.10;;;1.40;;
3589;SDS011;1809;48.470;9.226;2023-03-12T11:29:00;5.00;;;1.40;;
3589;SDS011;1809;48.470;9.226;2023-03-12T11:31:43;3.90;;;1.57;;
3589;SDS011;1809;48.470;9.226;2023-03-12T11:34:20;6.53;;;1.50;;
3589;SDS011;1809;48.470;9.226;2023-03-12T11:36:58;3.63;;;1.23;;
3589;SDS011;1809;48.470;9.226;2023-03-12T11:40:17;7.10;;;2.03;;
3589;SDS011;1809;48.470;9.226;2023-03-12T11:43:13;3.00;;;1.10;;
3589;SDS011;1809;48.470;9.226;2023-03-12T11:54:52;6.07;;;1.30;;
3589;SDS011;1809;48.470;9.226;2023-03-12T11:57:47;2.43;;;1.50;;
3589;SDS011;1809;48.470;9.226;2023-03-12T12:09:04;2.50;;;0.93;;
3589;SDS011;1809;48.470;9.226;2023-03-12T12:14:21;4.30;;;1.33;;
3589;SDS011;1809;48.470;9.226;2023-03-12T12:19:41;5.10;;;1.20;;
3589;SDS011;1809;48.470;9.226;2023-03-12T12:28:05;1.93;;;1.40;;
3589;SDS011;1809;48.470;9.226;2023-03-12T12:30:41;5.27;;;1.40;;
3589;SDS011;1809;48.470;9.226;2023-03-12T12:35:53;4.20;;;1.40;;
3589;SDS011;1809;48.470;9.226;2023-03-12T12:38:27;6.13;;;1.70;;
3589;SDS011;1809;48.470;9.226;2023-03-12T12:41:10;9.50;;;1.37;;
3589;SDS011;1809;48.470;9.226;2023-03-12T12:43:45;3.07;;;1.10;;
3589;SDS011;1809;48.470;9.226;2023-03-12T12:46:15;3.40;;;1.53;;
3589;SDS011;1809;48.470;9.226;2023-03-12T12:48:43;1.37;;;1.00;;
3589;SDS011;1809;48.470;9.226;2023-03-12T12:51:12;1.60;;;1.10;;
3589;SDS011;1809;48.470;9.226;2023-03-12T12:54:00;2.90;;;1.00;;
3589;SDS011;1809;48.470;9.226;2023-03-12T12:56:32;3.43;;;1.63;;
3589;SDS011;1809;48.470;9.226;2023-03-12T13:01:40;8.80;;;1.10;;
3589;SDS011;1809;48.470;9.226;2023-03-12T13:04:12;5.03;;;1.90;;
3589;SDS011;1809;48.470;9.226;2023-03-12T13:06:55;4.53;;;1.27;;
3589;SDS011;1809;48.470;9.226;2023-03-12T13:12:20;7.17;;;1.93;;
3589;SDS011;1809;48.470;9.226;2023-03-12T13:14:49;3.30;;;1.07;;
3589;SDS011;1809;48.470;9.226;2023-03-12T13:25:27;3.07;;;0.93;;
3589;SDS011;1809;48.470;9.226;2023-03-12T13:33:52;3.73;;;1.37;;
3589;SDS011;1809;48.470;9.226;2023-03-12T13:36:22;1.33;;;1.23;;
3589;SDS011;1809;48.470;9.226;2023-03-12T13:49:35;1.40;;;1.30;;
3589;SDS011;1809;48.470;9.226;2023-03-12T13:52:08;2.90;;;1.23;;
3589;SDS011;1809;48.470;9.226;2023-03-12T13:54:44;1.67;;;1.20;;
3589;SDS011;1809;48.470;9.226;2023-03-12T13:57:22;1.67;;;0.90;;
3589;SDS011;1809;48.470;9.226;2023-03-12T13:59:49;6.53;;;1.37;;
3589;SDS011;1809;48.470;9.226;2023-03-12T14:02:23;1.83;;;1.00;;
3589;SDS011;1809;48.470;9.226;2023-03-12T14:04:52;2.70;;;1.30;;
3589;SDS011;1809;48.470;9.226;2023-03-12T14:07:41;1.43;;;1.00;;
3589;SDS011;1809;48.470;9.226;2023-03-12T14:10:14;4.63;;;1.30;;
3589;SDS011;1809;48.470;9.226;2023-03-12T14:15:35;3.40;;;1.00;;
3589;SDS011;1809;48.470;9.226;2023-03-12T14:18:17;2.97;;;1.20;;
3589;SDS011;1809;48.470;9.226;2023-03-12T14:20:49;1.73;;;1.00;;
3589;SDS011;1809;48.470;9.226;2023-03-12T14:23:18;2.33;;;1.40;;
3589;SDS011;1809;48.470;9.226;2023-03-12T14:25:45;2.93;;;1.27;;
3589;SDS011;1809;48.470;9.226;2023-03-12T14:28:13;2.90;;;1.43;;
3589;SDS011;1809;48.470;9.226;2023-03-12T14:33:21;2.97;;;1.13;;
3589;SDS011;1809;48.470;9.226;2023-03-12T14:35:50;1.03;;;1.03;;
3589;SDS011;1809;48.470;9.226;2023-03-12T14:38:28;1.43;;;1.07;;
3589;SDS011;1809;48.470;9.226;2023-03-12T14:40:59;1.50;;;0.90;;
3589;SDS011;1809;48.470;9.226;2023-03-12T14:43:37;4.77;;;1.43;;
3589;SDS011;1809;48.470;9.226;2023-03-12T14:46:04;3.93;;;1.80;;
3589;SDS011;1809;48.470;9.226;2023-03-12T14:48:38;4.73;;;1.00;;
3589;SDS011;1809;48.470;9.226;2023-03-12T14:51:04;4.53;;;1.17;;
3589;SDS011;1809;48.470;9.226;2023-03-12T14:53:35;2.47;;;1.50;;
3589;SDS011;1809;48.470;9.226;2023-03-12T14:58:48;2.00;;;0.80;;
3589;SDS011;1809;48.470;9.226;2023-03-12T15:01:16;1.10;;;0.90;;
3589;SDS011;1809;48.470;9.226;2023-03-12T15:03:45;3.60;;;0.90;;
3589;SDS011;1809;48.470;9.226;2023-03-12T15:09:27;2.30;;;1.00;;
3589;SDS011;1809;48.470;9.226;2023-03-12T15:12:01;9.43;;;1.67;;
3589;SDS011;1809;48.470;9.226;2023-03-12T15:14:31;6.60;;;2.40;;
3589;SDS011;1809;48.470;9.226;2023-03-12T15:16:59;9.90;;;1.90;;
3589;SDS011;1809;48.470;9.226;2023-03-12T15:19:32;2.20;;;1.50;;
3589;SDS011;1809;48.470;9.226;2023-03-12T15:22:00;5.43;;;1.50;;
3589;SDS011;1809;48.470;9.226;2023-03-12T15:24:29;8.50;;;1.90;;
3589;SDS011;1809;48.470;9.226;2023-03-12T15:29:45;5.23;;;2.63;;
3589;SDS011;1809;48.470;9.226;2023-03-12T15:32:14;3.50;;;2.73;;
3589;SDS011;1809;48.470;9.226;2023-03-12T15:34:41;4.43;;;1.37;;
3589;SDS011;1809;48.470;9.226;2023-03-12T15:37:27;4.20;;;1.40;;
3589;SDS011;1809;48.470;9.226;2023-03-12T15:40:00;4.73;;;1.40;;
3589;SDS011;1809;48.470;9.226;2023-03-12T15:42:33;1.53;;;1.43;;
3589;SDS011;1809;48.470;9.226;2023-03-12T15:45:03;1.90;;;1.10;;
3589;SDS011;1809;48.470;9.226;2023-03-12T15:47:29;2.50;;;1.17;;
3589;SDS011;1809;48.470;9.226;2023-03-12T15:50:00;4.80;;;2.80;;
3589;SDS011;1809;48.470;9.226;2023-03-12T15:52:31;10.50;;;5.20;;
3589;SDS011;1809;48.470;9.226;2023-03-12T15:57:48;5.70;;;1.97;;
3589;SDS011;1809;48.470;9.226;2023-03-12T16:00:16;1.73;;;1.10;;
3589;SDS011;1809;48.470;9.226;2023-03-12T16:02:47;2.70;;;1.87;;
3589;SDS011;1809;48.470;9.226;2023-03-12T16:05:12;1.80;;;1.70;;
3589;SDS011;1809;48.470;9.226;2023-03-12T16:07:38;5.53;;;1.73;;
3589;SDS011;1809;48.470;9.226;2023-03-12T16:10:03;8.00;;;2.03;;
3589;SDS011;1809;48.470;9.226;2023-03-12T16:12:30;1.73;;;1.63;;
3589;SDS011;1809;48.470;9.226;2023-03-12T16:14:56;4.87;;;1.90;;
3589;SDS011;1809;48.470;9.226;2023-03-12T16:17:22;8.50;;;2.37;;
3589;SDS011;1809;48.470;9.226;2023-03-12T16:19:47;3.57;;;1.67;;
3589;SDS011;1809;48.470;9.226;2023-03-12T16:22:13;5.63;;;2.37;;
3589;SDS011;1809;48.470;9.226;2023-03-12T16:24:38;5.40;;;2.63;;
3589;SDS011;1809;48.470;9.226;2023-03-12T16:27:03;12.53;;;3.97;;
3589;SDS011;1809;48.470;9.226;2023-03-12T16:29:31;8.30;;;5.27;;
3589;SDS011;1809;48.470;9.226;2023-03-12T16:31:58;9.17;;;3.67;;
3589;SDS011;1809;48.470;9.226;2023-03-12T16:34:24;6.70;;;2.73;;
3589;SDS011;1809;48.470;9.226;2023-03-12T16:36:50;8.63;;;2.80;;
3589;SDS011;1809;48.470;9.226;2023-03-12T16:39:15;8.30;;;3.47;;
3589;SDS011;1809;48.470;9.226;2023-03-12T16:41:41;8.60;;;2.73;;
3589;SDS011;1809;48.470;9.226;2023-03-12T16:44:06;6.33;;;2.70;;
3589;SDS011;1809;48.470;9.226;2023-03-12T16:46:39;6.97;;;2.47;;
3589;SDS011;1809;48.470;9.226;2023-03-12T16:49:04;6.33;;;2.27;;
3589;SDS011;1809;48.470;9.226;2023-03-12T16:51:30;4.93;;;1.90;;
3589;SDS011;1809;48.470;9.226;2023-03-12T16:53:55;7.53;;;2.10;;
3589;SDS011;1809;48.470;9.226;2023-03-12T16:56:24;7.07;;;2.33;;
3589;SDS011;1809;48.470;9.226;2023-03-12T16:58:51;3.77;;;1.90;;
3589;SDS011;1809;48.470;9.226;2023-03-12T17:01:19;4.17;;;1.60;;